sensor_id;sensor_type;location;lat;lon;timestamp;pressure;altitude;pressure_sealevel;temperature;humidity
29417;BME280;28421;51.030;4.006;2023-07-20T00:01:14;101506.19;;;17.40;76.68
29417;BME280;28421;51.030;4.006;2023-07-20T00:03:40;101480.38;;;17.23;77.31
29417;BME280;28421;51.030;4.006;2023-07-20T00:06:06;101442.00;;;17.04;77.54
29417;BME280;28421;51.030;4.006;2023-07-20T00:08:31;101445.25;;;16.86;78.84
29417;BME280;28421;51.030;4.006;2023-07-20T00:10:57;101495.78;;;17.09;79.71
29417;BME280;28421;51.030;4.006;2023-07-20T00:13:22;101469.91;;;16.85;80.34
29417;BME280;28421;51.030;4.006;2023-07-20T00:15:48;101492.09;;;16.88;81.75
29417;BME280;28421;51.030;4.006;2023-07-20T00:18:13;101482.28;;;16.94;80.81
29417;BME280;28421;51.030;4.006;2023-07-20T00:20:39;101467.47;;;16.97;80.02
29417;BME280;28421;51.030;4.006;2023-07-20T00:23:05;101521.53;;;17.20;80.27
29417;BME280;28421;51.030;4.006;2023-07-20T00:25:30;101429.16;;;16.85;79.71
29417;BME280;28421;51.030;4.006;2023-07-20T00:27:56;101495.78;;;17.09;80.63
29417;BME280;28421;51.030;4.006;2023-07-20T00:30:21;101505.06;;;17.21;79.83
29417;BME280;28421;51.030;4.006;2023-07-20T00:32:47;101444.97;;;16.53;82.33
29417;BME280;28421;51.030;4.006;2023-07-20T00:35:12;101424.66;;;16.43;82.34
29417;BME280;28421;51.030;4.006;2023-07-20T00:37:39;101503.47;;;16.77;83.61
29417;BME280;28421;51.030;4.006;2023-07-20T00:40:05;101509.91;;;16.98;82.41
29417;BME280;28421;51.030;4.006;2023-07-20T00:42:33;101463.81;;;16.83;81.78
29417;BME280;28421;51.030;4.006;2023-07-20T00:44:59;101524.22;;;17.13;81.55
29417;BME280;28421;51.030;4.006;2023-07-20T00:47:26;101509.94;;;17.04;82.15
29417;BME280;28421;51.030;4.006;2023-07-20T00:49:52;101453.94;;;16.75;81.60
29417;BME280;28421;51.030;4.006;2023-07-20T00:52:18;101467.56;;;16.82;82.48
29417;BME280;28421;51.030;4.006;2023-07-20T00:54:44;101472.81;;;16.62;83.52
29417;BME280;28421;51.030;4.006;2023-07-20T00:57:09;101517.22;;;16.97;83.51
29417;BME280;28421;51.030;4.006;2023-07-20T00:59:35;101497.66;;;16.80;83.56
29417;BME280;28421;51.030;4.006;2023-07-20T01:02:02;101476.53;;;16.33;85.87
29417;BME280;28421;51.030;4.006;2023-07-20T01:04:28;101474.06;;;16.16;86.97
29417;BME280;28421;51.030;4.006;2023-07-20T01:07:11;101526.63;;;16.52;87.08
29417;BME280;28421;51.030;4.006;2023-07-20T01:09:48;101501.34;;;16.51;86.28
29417;BME280;28421;51.030;4.006;2023-07-20T01:12:35;101521.75;;;16.69;85.99
29417;BME280;28421;51.030;4.006;2023-07-20T01:15:05;101442.31;;;16.10;85.94
29417;BME280;28421;51.030;4.006;2023-07-20T01:17:33;101504.06;;;16.51;85.64
29417;BME280;28421;51.030;4.006;2023-07-20T01:19:58;101489.34;;;16.39;84.86
29417;BME280;28421;51.030;4.006;2023-07-20T01:31:23;101524.94;;;16.51;85.21
29417;BME280;28421;51.030;4.006;2023-07-20T01:33:50;101482.94;;;16.25;85.49
29417;BME280;28421;51.030;4.006;2023-07-20T01:36:18;101527.91;;;16.56;84.83
29417;BME280;28421;51.030;4.006;2023-07-20T01:38:44;101445.66;;;16.12;84.21
29417;BME280;28421;51.030;4.006;2023-07-20T01:41:11;101477.38;;;16.33;83.90
29417;BME280;28421;51.030;4.006;2023-07-20T01:43:37;101472.50;;;16.22;84.07
29417;BME280;28421;51.030;4.006;2023-07-20T01:46:04;101508.50;;;16.37;84.22
29417;BME280;28421;51.030;4.006;2023-07-20T01:48:29;101461.22;;;15.82;85.30
29417;BME280;28421;51.030;4.006;2023-07-20T01:50:55;101530.69;;;16.41;84.91
29417;BME280;28421;51.030;4.006;2023-07-20T01:53:21;101520.03;;;16.39;83.95
29417;BME280;28421;51.030;4.006;2023-07-20T01:55:47;101492.25;;;16.16;83.81
29417;BME280;28421;51.030;4.006;2023-07-20T01:58:13;101526.09;;;16.41;83.73
29417;BME280;28421;51.030;4.006;2023-07-20T02:00:38;101506.72;;;16.23;83.70
29417;BME280;28421;51.030;4.006;2023-07-20T02:03:04;101440.09;;;15.78;83.93
29417;BME280;28421;51.030;4.006;2023-07-20T02:05:29;101466.09;;;15.57;86.99
29417;BME280;28421;51.030;4.006;2023-07-20T02:07:55;101496.88;;;15.64;87.65
29417;BME280;28421;51.030;4.006;2023-07-20T02:10:21;101485.47;;;15.69;86.52
29417;BME280;28421;51.030;4.006;2023-07-20T02:12:47;101478.06;;;15.78;85.50
29417;BME280;28421;51.030;4.006;2023-07-20T02:15:14;101494.97;;;15.80;85.18
29417;BME280;28421;51.030;4.006;2023-07-20T02:17:42;101486.50;;;15.68;85.05
29417;BME280;28421;51.030;4.006;2023-07-20T02:20:08;101461.53;;;15.58;84.86
29417;BME280;28421;51.030;4.006;2023-07-20T02:22:36;101487.50;;;15.67;85.19
29417;BME280;28421;51.030;4.006;2023-07-20T02:25:04;101454.31;;;15.50;84.69
29417;BME280;28421;51.030;4.006;2023-07-20T02:27:29;101477.22;;;15.62;84.06
29417;BME280;28421;51.030;4.006;2023-07-20T02:29:55;101468.81;;;15.57;84.17
29417;BME280;28421;51.030;4.006;2023-07-20T02:32:21;101474.03;;;15.59;83.94
29417;BME280;28421;51.030;4.006;2023-07-20T02:34:47;101521.69;;;15.83;84.04
29417;BME280;28421;51.030;4.006;2023-07-20T02:37:12;101498.34;;;15.67;83.91
29417;BME280;28421;51.030;4.006;2023-07-20T02:39:39;101464.06;;;15.59;85.52
29417;BME280;28421;51.030;4.006;2023-07-20T02:42:04;101483.22;;;15.73;84.42
29417;BME280;28421;51.030;4.006;2023-07-20T02:44:30;101505.91;;;15.86;84.47
29417;BME280;28421;51.030;4.006;2023-07-20T02:46:55;101536.47;;;16.16;84.36
29417;BME280;28421;51.030;4.006;2023-07-20T02:49:21;101525.97;;;15.92;85.66
29417;BME280;28421;51.030;4.006;2023-07-20T02:51:46;101536.50;;;15.65;88.34
29417;BME280;28421;51.030;4.006;2023-07-20T02:54:12;101481.38;;;15.44;89.12
29417;BME280;28421;51.030;4.006;2023-07-20T02:56:37;101487.44;;;15.46;89.74
29417;BME280;28421;51.030;4.006;2023-07-20T02:59:03;101461.16;;;15.46;89.23
29417;BME280;28421;51.030;4.006;2023-07-20T03:01:29;101455.84;;;15.38;89.29
29417;BME280;28421;51.030;4.006;2023-07-20T03:03:55;101508.63;;;15.72;89.98
29417;BME280;28421;51.030;4.006;2023-07-20T03:06:21;101498.34;;;15.82;89.10
29417;BME280;28421;51.030;4.006;2023-07-20T03:08:47;101447.34;;;15.56;88.24
29417;BME280;28421;51.030;4.006;2023-07-20T03:11:14;101477.09;;;15.85;87.52
29417;BME280;28421;51.030;4.006;2023-07-20T03:13:41;101459.06;;;15.78;86.80
29417;BME280;28421;51.030;4.006;2023-07-20T03:16:08;101516.75;;;16.23;86.28
29417;BME280;28421;51.030;4.006;2023-07-20T03:18:39;101539.38;;;16.30;86.05
29417;BME280;28421;51.030;4.006;2023-07-20T03:21:08;101498.63;;;16.08;85.83
29417;BME280;28421;51.030;4.006;2023-07-20T03:23:33;101469.59;;;15.87;85.46
29417;BME280;28421;51.030;4.006;2023-07-20T03:26:00;101502.38;;;16.07;85.83
29417;BME280;28421;51.030;4.006;2023-07-20T03:28:25;101493.63;;;15.90;87.32
29417;BME280;28421;51.030;4.006;2023-07-20T03:30:54;101530.19;;;15.95;88.32
29417;BME280;28421;51.030;4.006;2023-07-20T03:33:22;101510.25;;;15.66;89.10
29417;BME280;28421;51.030;4.006;2023-07-20T03:35:48;101537.03;;;15.90;88.91
29417;BME280;28421;51.030;4.006;2023-07-20T03:38:13;101467.03;;;15.50;89.11
29417;BME280;28421;51.030;4.006;2023-07-20T03:40:38;101487.53;;;15.52;90.30
29417;BME280;28421;51.030;4.006;2023-07-20T03:43:04;101479.84;;;15.56;89.40
29417;BME280;28421;51.030;4.006;2023-07-20T03:45:29;101486.22;;;15.48;89.85
29417;BME280;28421;51.030;4.006;2023-07-20T03:47:55;101442.88;;;15.33;89.92
29417;BME280;28421;51.030;4.006;2023-07-20T03:50:21;101550.50;;;15.84;90.61
29417;BME280;28421;51.030;4.006;2023-07-20T03:52:47;101496.78;;;15.73;89.93
29417;BME280;28421;51.030;4.006;2023-07-20T03:55:13;101477.78;;;15.73;89.02
29417;BME280;28421;51.030;4.006;2023-07-20T03:57:38;101477.53;;;15.38;89.63
29417;BME280;28421;51.030;4.006;2023-07-20T04:00:04;101522.94;;;15.65;90.66
29417;BME280;28421;51.030;4.006;2023-07-20T04:02:38;101458.13;;;15.20;91.17
29417;BME280;28421;51.030;4.006;2023-07-20T04:05:04;101523.31;;;15.77;90.58
29417;BME280;28421;51.030;4.006;2023-07-20T04:07:29;101504.13;;;15.79;89.48
29417;BME280;28421;51.030;4.006;2023-07-20T04:09:54;101529.63;;;15.99;89.74
29417;BME280;28421;51.030;4.006;2023-07-20T04:12:20;101548.28;;;16.09;88.85
29417;BME280;28421;51.030;4.006;2023-07-20T04:14:45;101481.72;;;15.70;88.30
29417;BME280;28421;51.030;4.006;2023-07-20T04:17:11;101503.44;;;15.91;88.49
29417;BME280;28421;51.030;4.006;2023-07-20T04:19:39;101531.59;;;16.05;88.34
29417;BME280;28421;51.030;4.006;2023-07-20T04:22:04;101508.38;;;16.03;87.89
29417;BME280;28421;51.030;4.006;2023-07-20T04:24:30;101563.00;;;16.36;87.24
29417;BME280;28421;51.030;4.006;2023-07-20T04:26:55;101513.72;;;15.96;87.34
29417;BME280;28421;51.030;4.006;2023-07-20T04:29:21;101566.44;;;16.08;89.13
29417;BME280;28421;51.030;4.006;2023-07-20T04:31:46;101507.03;;;15.62;89.11
29417;BME280;28421;51.030;4.006;2023-07-20T04:34:11;101471.00;;;15.47;90.19
29417;BME280;28421;51.030;4.006;2023-07-20T04:36:38;101541.16;;;15.86;90.01
29417;BME280;28421;51.030;4.006;2023-07-20T04:39:04;101511.44;;;15.78;89.70
29417;BME280;28421;51.030;4.006;2023-07-20T04:41:38;101485.28;;;15.56;90.39
29417;BME280;28421;51.030;4.006;2023-07-20T04:44:04;101505.75;;;15.44;91.78
29417;BME280;28421;51.030;4.006;2023-07-20T04:46:30;101507.91;;;15.48;92.91
29417;BME280;28421;51.030;4.006;2023-07-20T04:48:57;101493.56;;;15.54;91.91
29417;BME280;28421;51.030;4.006;2023-07-20T04:51:24;101515.66;;;15.66;92.97
29417;BME280;28421;51.030;4.006;2023-07-20T04:53:53;101469.84;;;15.41;91.57
29417;BME280;28421;51.030;4.006;2023-07-20T04:56:18;101541.56;;;15.69;92.96
29417;BME280;28421;51.030;4.006;2023-07-20T04:58:44;101555.00;;;15.77;92.98
29417;BME280;28421;51.030;4.006;2023-07-20T05:01:10;101541.72;;;15.67;93.83
29417;BME280;28421;51.030;4.006;2023-07-20T05:03:37;101500.22;;;15.52;94.70
29417;BME280;28421;51.030;4.006;2023-07-20T05:06:02;101522.38;;;15.55;94.56
29417;BME280;28421;51.030;4.006;2023-07-20T05:08:28;101502.09;;;15.66;94.62
29417;BME280;28421;51.030;4.006;2023-07-20T05:10:53;101537.84;;;16.06;93.21
29417;BME280;28421;51.030;4.006;2023-07-20T05:13:19;101524.69;;;15.88;92.65
29417;BME280;28421;51.030;4.006;2023-07-20T05:15:44;101530.66;;;15.98;93.02
29417;BME280;28421;51.030;4.006;2023-07-20T05:18:14;101515.00;;;16.00;92.83
29417;BME280;28421;51.030;4.006;2023-07-20T05:20:49;101521.38;;;16.29;92.35
29417;BME280;28421;51.030;4.006;2023-07-20T05:23:18;101559.13;;;16.45;91.37
29417;BME280;28421;51.030;4.006;2023-07-20T05:25:58;101519.78;;;16.34;91.16
29417;BME280;28421;51.030;4.006;2023-07-20T05:28:24;101538.31;;;16.74;90.26
29417;BME280;28421;51.030;4.006;2023-07-20T05:30:50;101544.41;;;16.76;88.77
29417;BME280;28421;51.030;4.006;2023-07-20T05:33:19;101532.09;;;16.58;88.81
29417;BME280;28421;51.030;4.006;2023-07-20T05:35:45;101565.44;;;16.95;88.00
29417;BME280;28421;51.030;4.006;2023-07-20T05:38:11;101521.25;;;16.58;87.36
29417;BME280;28421;51.030;4.006;2023-07-20T05:40:40;101513.06;;;16.73;87.92
29417;BME280;28421;51.030;4.006;2023-07-20T05:43:06;101533.41;;;17.12;87.07
29417;BME280;28421;51.030;4.006;2023-07-20T05:45:31;101508.78;;;17.20;85.96
29417;BME280;28421;51.030;4.006;2023-07-20T05:47:57;101555.03;;;17.61;84.89
29417;BME280;28421;51.030;4.006;2023-07-20T05:50:22;101520.88;;;17.52;83.88
29417;BME280;28421;51.030;4.006;2023-07-20T05:52:48;101560.13;;;17.08;85.40
29417;BME280;28421;51.030;4.006;2023-07-20T05:55:13;101513.91;;;17.02;84.96
29417;BME280;28421;51.030;4.006;2023-07-20T05:57:39;101513.78;;;17.17;85.02
29417;BME280;28421;51.030;4.006;2023-07-20T06:00:09;101550.41;;;17.62;84.23
29417;BME280;28421;51.030;4.006;2023-07-20T06:02:38;101541.34;;;17.83;82.59
29417;BME280;28421;51.030;4.006;2023-07-20T06:05:03;101559.00;;;18.00;80.87
29417;BME280;28421;51.030;4.006;2023-07-20T06:07:29;101570.50;;;17.96;80.98
29417;BME280;28421;51.030;4.006;2023-07-20T06:09:54;101561.13;;;18.05;80.26
29417;BME280;28421;51.030;4.006;2023-07-20T06:12:21;101511.06;;;17.93;79.63
29417;BME280;28421;51.030;4.006;2023-07-20T06:14:46;101549.06;;;18.41;79.02
29417;BME280;28421;51.030;4.006;2023-07-20T06:17:12;101493.44;;;17.40;80.05
29417;BME280;28421;51.030;4.006;2023-07-20T06:19:37;101569.78;;;18.35;78.76
29417;BME280;28421;51.030;4.006;2023-07-20T06:22:03;101560.28;;;18.11;78.73
29417;BME280;28421;51.030;4.006;2023-07-20T06:24:29;101491.53;;;17.41;81.30
29417;BME280;28421;51.030;4.006;2023-07-20T06:26:54;101493.22;;;17.77;79.93
29417;BME280;28421;51.030;4.006;2023-07-20T06:29:19;101538.78;;;18.49;78.43
29417;BME280;28421;51.030;4.006;2023-07-20T06:31:45;101550.75;;;18.61;76.70
29417;BME280;28421;51.030;4.006;2023-07-20T06:34:10;101571.06;;;18.52;76.83
29417;BME280;28421;51.030;4.006;2023-07-20T06:36:36;101545.25;;;18.22;76.59
29417;BME280;28421;51.030;4.006;2023-07-20T06:39:01;101546.06;;;17.68;78.49
29417;BME280;28421;51.030;4.006;2023-07-20T06:41:28;101573.09;;;17.41;79.62
29417;BME280;28421;51.030;4.006;2023-07-20T06:43:54;101486.69;;;17.30;78.79
29417;BME280;28421;51.030;4.006;2023-07-20T06:46:24;101582.00;;;17.98;78.05
29417;BME280;28421;51.030;4.006;2023-07-20T06:48:50;101506.84;;;17.83;76.88
29417;BME280;28421;51.030;4.006;2023-07-20T06:51:15;101526.81;;;17.69;76.88
29417;BME280;28421;51.030;4.006;2023-07-20T06:53:41;101518.00;;;18.08;76.42
29417;BME280;28421;51.030;4.006;2023-07-20T06:56:07;101578.34;;;18.25;77.21
29417;BME280;28421;51.030;4.006;2023-07-20T06:58:32;101507.72;;;18.04;75.92
29417;BME280;28421;51.030;4.006;2023-07-20T07:00:58;101565.56;;;18.26;75.57
29417;BME280;28421;51.030;4.006;2023-07-20T07:03:24;101526.25;;;18.42;74.86
29417;BME280;28421;51.030;4.006;2023-07-20T07:05:49;101588.31;;;18.99;74.17
29417;BME280;28421;51.030;4.006;2023-07-20T07:08:14;101529.78;;;18.35;73.86
29417;BME280;28421;51.030;4.006;2023-07-20T07:10:40;101545.31;;;18.42;73.96
29417;BME280;28421;51.030;4.006;2023-07-20T07:13:05;101579.19;;;18.32;75.00
29417;BME280;28421;51.030;4.006;2023-07-20T07:15:31;101597.28;;;18.67;74.30
29417;BME280;28421;51.030;4.006;2023-07-20T07:17:57;101592.50;;;18.95;72.68
29417;BME280;28421;51.030;4.006;2023-07-20T07:20:24;101555.63;;;19.06;72.08
29417;BME280;28421;51.030;4.006;2023-07-20T07:22:50;101601.94;;;19.26;70.50
29417;BME280;28421;51.030;4.006;2023-07-20T07:25:17;101557.94;;;18.96;70.28
29417;BME280;28421;51.030;4.006;2023-07-20T07:27:42;101587.88;;;19.42;70.31
29417;BME280;28421;51.030;4.006;2023-07-20T07:30:08;101595.03;;;18.90;71.66
29417;BME280;28421;51.030;4.006;2023-07-20T07:32:33;101518.47;;;18.32;71.27
29417;BME280;28421;51.030;4.006;2023-07-20T07:34:59;101526.03;;;18.43;69.57
29417;BME280;28421;51.030;4.006;2023-07-20T07:37:25;101553.72;;;19.33;68.02
29417;BME280;28421;51.030;4.006;2023-07-20T07:39:51;101537.06;;;19.54;66.65
29417;BME280;28421;51.030;4.006;2023-07-20T07:42:16;101581.81;;;20.11;64.66
29417;BME280;28421;51.030;4.006;2023-07-20T07:44:42;101562.22;;;19.76;66.11
29417;BME280;28421;51.030;4.006;2023-07-20T07:47:07;101569.94;;;19.86;65.19
29417;BME280;28421;51.030;4.006;2023-07-20T07:49:32;101540.81;;;19.73;66.44
29417;BME280;28421;51.030;4.006;2023-07-20T07:51:58;101546.44;;;20.23;64.73
29417;BME280;28421;51.030;4.006;2023-07-20T07:54:23;101571.53;;;20.45;63.79
29417;BME280;28421;51.030;4.006;2023-07-20T07:56:49;101562.25;;;20.15;62.68
29417;BME280;28421;51.030;4.006;2023-07-20T07:59:16;101559.53;;;19.50;65.65
29417;BME280;28421;51.030;4.006;2023-07-20T08:01:42;101586.59;;;19.65;66.34
29417;BME280;28421;51.030;4.006;2023-07-20T08:04:07;101601.84;;;19.85;66.26
29417;BME280;28421;51.030;4.006;2023-07-20T08:06:33;101591.31;;;20.41;64.33
29417;BME280;28421;51.030;4.006;2023-07-20T08:08:59;101525.31;;;20.12;62.73
29417;BME280;28421;51.030;4.006;2023-07-20T08:11:24;101535.97;;;20.20;62.25
29417;BME280;28421;51.030;4.006;2023-07-20T08:13:50;101569.19;;;20.80;62.49
29417;BME280;28421;51.030;4.006;2023-07-20T08:16:15;101590.91;;;21.00;61.24
29417;BME280;28421;51.030;4.006;2023-07-20T08:18:41;101578.97;;;20.70;61.96
29417;BME280;28421;51.030;4.006;2023-07-20T08:21:06;101543.03;;;20.66;62.74
29417;BME280;28421;51.030;4.006;2023-07-20T08:23:32;101564.06;;;21.16;61.14
29417;BME280;28421;51.030;4.006;2023-07-20T08:25:57;101574.16;;;21.77;59.84
29417;BME280;28421;51.030;4.006;2023-07-20T08:28:22;101563.88;;;22.09;58.02
29417;BME280;28421;51.030;4.006;2023-07-20T08:30:49;101550.06;;;21.67;57.20
29417;BME280;28421;51.030;4.006;2023-07-20T08:33:18;101594.34;;;21.14;59.26
29417;BME280;28421;51.030;4.006;2023-07-20T08:35:45;101581.91;;;20.93;59.87
29417;BME280;28421;51.030;4.006;2023-07-20T08:38:10;101602.22;;;21.72;58.74
29417;BME280;28421;51.030;4.006;2023-07-20T08:40:40;101588.09;;;21.57;57.41
29417;BME280;28421;51.030;4.006;2023-07-20T08:43:06;101573.09;;;21.96;57.77
29417;BME280;28421;51.030;4.006;2023-07-20T08:45:36;101592.56;;;22.25;57.08
29417;BME280;28421;51.030;4.006;2023-07-20T08:48:05;101602.81;;;22.29;55.52
29417;BME280;28421;51.030;4.006;2023-07-20T08:50:31;101557.91;;;21.82;55.00
29417;BME280;28421;51.030;4.006;2023-07-20T08:52:58;101605.84;;;21.48;56.59
29417;BME280;28421;51.030;4.006;2023-07-20T08:55:26;101570.97;;;20.93;57.72
29417;BME280;28421;51.030;4.006;2023-07-20T08:57:53;101574.72;;;21.49;56.75
29417;BME280;28421;51.030;4.006;2023-07-20T09:00:20;101567.28;;;21.31;57.49
29417;BME280;28421;51.030;4.006;2023-07-20T09:02:47;101595.38;;;21.45;58.15
29417;BME280;28421;51.030;4.006;2023-07-20T09:05:14;101575.13;;;22.01;56.41
29417;BME280;28421;51.030;4.006;2023-07-20T09:07:40;101584.97;;;22.80;55.30
29417;BME280;28421;51.030;4.006;2023-07-20T09:10:06;101563.13;;;22.20;55.59
29417;BME280;28421;51.030;4.006;2023-07-20T09:12:37;101553.88;;;22.33;54.84
29417;BME280;28421;51.030;4.006;2023-07-20T09:15:04;101552.13;;;22.50;52.54
29417;BME280;28421;51.030;4.006;2023-07-20T09:17:30;101577.34;;;21.37;55.34
29417;BME280;28421;51.030;4.006;2023-07-20T09:19:55;101564.16;;;21.52;54.58
29417;BME280;28421;51.030;4.006;2023-07-20T09:22:21;101536.78;;;21.09;55.87
29417;BME280;28421;51.030;4.006;2023-07-20T09:24:46;101593.63;;;22.24;54.63
29417;BME280;28421;51.030;4.006;2023-07-20T09:27:12;101547.09;;;22.36;51.63
29417;BME280;28421;51.030;4.006;2023-07-20T09:29:52;101538.09;;;22.58;52.36
29417;BME280;28421;51.030;4.006;2023-07-20T09:32:21;101541.91;;;23.23;50.38
29417;BME280;28421;51.030;4.006;2023-07-20T09:34:49;101585.22;;;23.96;50.21
29417;BME280;28421;51.030;4.006;2023-07-20T09:37:22;101552.69;;;24.05;50.11
29417;BME280;28421;51.030;4.006;2023-07-20T09:39:51;101588.38;;;24.17;49.50
29417;BME280;28421;51.030;4.006;2023-07-20T09:42:17;101551.75;;;24.40;48.10
29417;BME280;28421;51.030;4.006;2023-07-20T09:44:44;101550.44;;;24.59;47.02
29417;BME280;28421;51.030;4.006;2023-07-20T09:47:10;101546.09;;;24.63;45.85
29417;BME280;28421;51.030;4.006;2023-07-20T09:49:42;101582.94;;;24.62;45.86
29417;BME280;28421;51.030;4.006;2023-07-20T09:52:11;101556.59;;;24.49;45.13
29417;BME280;28421;51.030;4.006;2023-07-20T09:54:38;101548.41;;;23.57;46.58
29417;BME280;28421;51.030;4.006;2023-07-20T09:57:07;101548.03;;;23.77;45.91
29417;BME280;28421;51.030;4.006;2023-07-20T09:59:32;101559.97;;;24.11;46.45
29417;BME280;28421;51.030;4.006;2023-07-20T10:01:58;101549.69;;;23.78;46.24
29417;BME280;28421;51.030;4.006;2023-07-20T10:04:26;101567.03;;;22.54;48.78
29417;BME280;28421;51.030;4.006;2023-07-20T10:06:54;101580.28;;;22.57;49.15
29417;BME280;28421;51.030;4.006;2023-07-20T10:09:21;101562.69;;;22.77;48.31
29417;BME280;28421;51.030;4.006;2023-07-20T10:11:53;101582.19;;;22.27;51.78
29417;BME280;28421;51.030;4.006;2023-07-20T10:14:22;101560.47;;;22.14;51.66
29417;BME280;28421;51.030;4.006;2023-07-20T10:16:55;101562.03;;;23.05;50.40
29417;BME280;28421;51.030;4.006;2023-07-20T10:19:27;101528.16;;;22.99;47.68
29417;BME280;28421;51.030;4.006;2023-07-20T10:22:03;101565.69;;;23.81;48.10
29417;BME280;28421;51.030;4.006;2023-07-20T10:24:31;101553.44;;;24.00;47.52
29417;BME280;28421;51.030;4.006;2023-07-20T10:26:57;101533.16;;;24.01;46.57
29417;BME280;28421;51.030;4.006;2023-07-20T10:29:23;101520.00;;;24.03;45.61
29417;BME280;28421;51.030;4.006;2023-07-20T10:31:49;101544.22;;;22.84;47.97
29417;BME280;28421;51.030;4.006;2023-07-20T10:34:15;101520.25;;;22.79;47.55
29417;BME280;28421;51.030;4.006;2023-07-20T10:36:45;101525.44;;;23.23;47.69
29417;BME280;28421;51.030;4.006;2023-07-20T10:39:24;101520.94;;;22.63;48.09
29417;BME280;28421;51.030;4.006;2023-07-20T10:42:03;101560.72;;;22.96;49.34
29417;BME280;28421;51.030;4.006;2023-07-20T10:44:29;101550.72;;;22.59;50.15
29417;BME280;28421;51.030;4.006;2023-07-20T10:47:00;101562.19;;;22.68;49.96
29417;BME280;28421;51.030;4.006;2023-07-20T10:49:26;101526.50;;;22.98;49.02
29417;BME280;28421;51.030;4.006;2023-07-20T10:51:59;101528.50;;;23.38;47.39
29417;BME280;28421;51.030;4.006;2023-07-20T10:56:51;101510.94;;;22.80;48.93
29417;BME280;28421;51.030;4.006;2023-07-20T11:01:45;101530.16;;;21.78;52.35
29417;BME280;28421;51.030;4.006;2023-07-20T11:04:12;101543.75;;;21.85;51.52
29417;BME280;28421;51.030;4.006;2023-07-20T11:06:42;101518.38;;;21.59;50.80
29417;BME280;28421;51.030;4.006;2023-07-20T11:09:15;101518.53;;;22.13;50.31
29417;BME280;28421;51.030;4.006;2023-07-20T11:11:46;101464.81;;;22.12;50.02
29417;BME280;28421;51.030;4.006;2023-07-20T11:14:23;101542.91;;;22.75;49.68
29417;BME280;28421;51.030;4.006;2023-07-20T11:16:51;101506.16;;;22.52;50.83
29417;BME280;28421;51.030;4.006;2023-07-20T11:19:22;101508.53;;;21.89;51.88
29417;BME280;28421;51.030;4.006;2023-07-20T11:21:54;101516.56;;;22.74;49.62
29417;BME280;28421;51.030;4.006;2023-07-20T11:24:20;101458.03;;;22.80;49.11
29417;BME280;28421;51.030;4.006;2023-07-20T11:29:15;101478.75;;;23.87;46.00
29417;BME280;28421;51.030;4.006;2023-07-20T11:31:43;101517.88;;;24.22;46.62
29417;BME280;28421;51.030;4.006;2023-07-20T11:34:11;101481.44;;;23.98;45.78
29417;BME280;28421;51.030;4.006;2023-07-20T11:36:39;101468.47;;;23.42;45.72
29417;BME280;28421;51.030;4.006;2023-07-20T11:39:07;101509.81;;;23.23;47.16
29417;BME280;28421;51.030;4.006;2023-07-20T11:41:33;101481.19;;;23.60;46.06
29417;BME280;28421;51.030;4.006;2023-07-20T11:43:58;101476.19;;;23.56;45.95
29417;BME280;28421;51.030;4.006;2023-07-20T11:46:24;101477.81;;;23.05;48.25
29417;BME280;28421;51.030;4.006;2023-07-20T11:48:56;101458.91;;;22.27;48.21
29417;BME280;28421;51.030;4.006;2023-07-20T11:51:22;101492.75;;;22.98;48.01
29417;BME280;28421;51.030;4.006;2023-07-20T11:53:48;101476.88;;;22.65;48.74
29417;BME280;28421;51.030;4.006;2023-07-20T11:56:14;101473.22;;;22.94;48.95
29417;BME280;28421;51.030;4.006;2023-07-20T11:58:45;101487.03;;;22.99;48.07
29417;BME280;28421;51.030;4.006;2023-07-20T12:01:15;101461.69;;;23.32;47.02
29417;BME280;28421;51.030;4.006;2023-07-20T12:03:43;101471.75;;;23.27;46.72
29417;BME280;28421;51.030;4.006;2023-07-20T12:06:10;101477.63;;;23.07;47.98
29417;BME280;28421;51.030;4.006;2023-07-20T12:08:39;101463.63;;;22.50;48.88
29417;BME280;28421;51.030;4.006;2023-07-20T12:11:06;101479.22;;;22.84;49.24
29417;BME280;28421;51.030;4.006;2023-07-20T12:13:44;101506.53;;;22.79;49.97
29417;BME280;28421;51.030;4.006;2023-07-20T12:16:11;101475.00;;;22.35;50.01
29417;BME280;28421;51.030;4.006;2023-07-20T12:18:38;101462.69;;;21.84;50.57
29417;BME280;28421;51.030;4.006;2023-07-20T12:21:05;101478.81;;;22.34;50.18
29417;BME280;28421;51.030;4.006;2023-07-20T12:23:38;101448.47;;;22.05;50.92
29417;BME280;28421;51.030;4.006;2023-07-20T12:26:08;101446.78;;;21.63;51.52
29417;BME280;28421;51.030;4.006;2023-07-20T12:28:41;101453.94;;;22.05;51.41
29417;BME280;28421;51.030;4.006;2023-07-20T12:31:07;101472.84;;;21.47;54.54
29417;BME280;28421;51.030;4.006;2023-07-20T12:33:33;101441.09;;;21.76;55.05
29417;BME280;28421;51.030;4.006;2023-07-20T12:35:59;101435.59;;;22.06;53.77
29417;BME280;28421;51.030;4.006;2023-07-20T12:38:26;101470.72;;;22.27;53.81
29417;BME280;28421;51.030;4.006;2023-07-20T12:40:53;101472.34;;;21.87;53.04
29417;BME280;28421;51.030;4.006;2023-07-20T12:43:21;101489.78;;;22.34;52.98
29417;BME280;28421;51.030;4.006;2023-07-20T12:45:46;101496.34;;;22.33;53.23
29417;BME280;28421;51.030;4.006;2023-07-20T12:48:12;101485.16;;;22.46;53.37
29417;BME280;28421;51.030;4.006;2023-07-20T12:50:37;101475.50;;;22.32;53.21
29417;BME280;28421;51.030;4.006;2023-07-20T12:53:03;101487.63;;;22.24;53.25
29417;BME280;28421;51.030;4.006;2023-07-20T12:55:29;101493.56;;;22.21;52.99
29417;BME280;28421;51.030;4.006;2023-07-20T12:57:54;101442.31;;;21.50;53.24
29417;BME280;28421;51.030;4.006;2023-07-20T13:00:20;101491.31;;;22.00;53.00
29417;BME280;28421;51.030;4.006;2023-07-20T13:02:47;101480.19;;;21.83;52.25
29417;BME280;28421;51.030;4.006;2023-07-20T13:05:12;101445.84;;;21.69;53.75